Time;durP1;ratioP1;P1;durP2;ratioP2;P2;SDS_P1;SDS_P2;PMS_P1;PMS_P2;Temp;Humidity;BMP_temperature;BMP_pressure;BME280_temperature;BME280_humidity;BME280_pressure;Samples;Min_cycle;Max_cycle;Signal;HPM_P1;HPM_P2
2022/04/15 00:01:27;;;;;;;10.65;3.95;;;7.80;99.90;;;;;;5059141;28;20043;-73
2022/04/15 00:03:53;;;;;;;8.47;3.70;;;7.80;99.90;;;;;;5077886;28;20063;-71
2022/04/15 00:06:24;;;;;;;6.23;3.20;;;7.80;99.90;;;;;;5060946;28;20520;-72
2022/04/15 00:08:50;;;;;;;18.05;5.75;;;7.80;99.90;;;;;;5075592;28;20052;-72
2022/04/15 00:11:16;;;;;;;8.80;3.97;;;7.80;99.90;;;;;;5059886;28;20036;-73
2022/04/15 00:13:41;;;;;;;7.30;3.30;;;7.70;99.90;;;;;;5056019;28;20858;-72
2022/04/15 00:16:08;;;;;;;9.20;3.63;;;7.70;99.90;;;;;;5072936;28;21298;-72
2022/04/15 00:18:35;;;;;;;5.95;3.65;;;7.70;99.90;;;;;;5083173;28;20043;-72
2022/04/15 00:21:02;;;;;;;7.63;4.18;;;7.70;99.90;;;;;;5059732;28;20048;-71
2022/04/15 00:23:28;;;;;;;7.18;3.75;;;7.60;99.90;;;;;;5051610;28;20059;-72
2022/04/15 00:25:54;;;;;;;8.93;4.03;;;7.60;99.90;;;;;;5053791;28;20032;-72
2022/04/15 00:28:21;;;;;;;15.25;4.15;;;7.60;99.90;;;;;;5055270;28;20493;-73
2022/04/15 00:30:47;;;;;;;9.73;4.22;;;7.50;99.90;;;;;;5081752;28;20036;-72
2022/04/15 00:33:13;;;;;;;10.32;4.07;;;7.50;99.90;;;;;;5079721;28;20123;-72
2022/04/15 00:35:39;;;;;;;6.30;4.50;;;7.50;99.90;;;;;;5077825;28;20135;-71
2022/04/15 00:38:05;;;;;;;10.95;4.22;;;7.50;99.90;;;;;;5079848;28;20044;-72
2022/04/15 00:40:30;;;;;;;6.50;3.63;;;7.50;99.90;;;;;;5068228;28;20519;-72
2022/04/15 00:42:56;;;;;;;6.17;3.93;;;7.50;99.90;;;;;;5069868;28;20033;-72
2022/04/15 00:45:22;;;;;;;6.13;3.83;;;7.50;99.90;;;;;;5064017;28;20036;-72
2022/04/15 00:47:53;;;;;;;9.43;4.20;;;7.50;99.90;;;;;;5060015;28;20067;-72
2022/04/15 00:50:24;;;;;;;8.32;3.67;;;7.60;99.90;;;;;;5058803;28;20042;-71
2022/04/15 00:52:52;;;;;;;10.05;4.38;;;7.60;99.90;;;;;;5054477;28;20507;-72
2022/04/15 00:55:19;;;;;;;11.85;3.83;;;7.60;99.90;;;;;;5060098;28;20051;-72
2022/04/15 00:57:51;;;;;;;9.85;3.78;;;7.60;99.90;;;;;;5065609;28;20044;-71
2022/04/15 01:00:18;;;;;;;9.07;3.92;;;7.60;99.90;;;;;;5062854;28;20043;-71
2022/04/15 01:02:44;;;;;;;8.25;3.90;;;7.60;99.90;;;;;;5058425;28;20044;-71
2022/04/15 01:05:11;;;;;;;6.30;3.65;;;7.60;99.90;;;;;;5079712;28;20070;-72
2022/04/15 01:07:47;;;;;;;8.40;3.70;;;7.60;99.90;;;;;;5085882;28;20035;-77
2022/04/15 01:10:14;;;;;;;11.05;3.95;;;7.70;99.90;;;;;;5057589;28;20303;-70
2022/04/15 01:12:43;;;;;;;7.15;3.35;;;7.70;99.90;;;;;;5086410;28;20058;-71
2022/04/15 01:15:12;;;;;;;8.65;4.22;;;7.70;99.90;;;;;;5067217;28;20142;-72
2022/04/15 01:17:38;;;;;;;8.15;3.97;;;7.70;99.90;;;;;;5060948;28;20131;-71
2022/04/15 01:20:07;;;;;;;12.73;4.30;;;7.70;99.90;;;;;;5063919;28;20123;-71
2022/04/15 01:22:37;;;;;;;6.97;3.67;;;7.70;99.90;;;;;;5065742;28;20036;-70
2022/04/15 01:25:04;;;;;;;8.20;3.90;;;7.80;99.90;;;;;;5068308;28;20047;-70
2022/04/15 01:27:38;;;;;;;7.60;3.90;;;7.80;99.90;;;;;;5065170;28;20463;-74
2022/04/15 01:30:06;;;;;;;9.23;3.13;;;7.80;99.90;;;;;;5076063;28;20089;-71
2022/04/15 01:32:31;;;;;;;8.25;3.03;;;7.90;99.90;;;;;;5089964;28;20036;-71
2022/04/15 01:34:57;;;;;;;8.60;3.77;;;7.90;99.90;;;;;;5057936;28;20039;-71
2022/04/15 01:37:23;;;;;;;6.43;3.20;;;7.90;99.90;;;;;;5086220;28;20036;-71
2022/04/15 01:39:50;;;;;;;9.40;3.45;;;8.00;99.90;;;;;;5062596;28;20043;-70
2022/04/15 01:42:17;;;;;;;7.60;3.30;;;8.00;99.90;;;;;;5084381;28;20476;-71
2022/04/15 01:44:43;;;;;;;13.57;5.03;;;8.00;99.90;;;;;;5066103;28;20040;-71
2022/04/15 01:47:10;;;;;;;6.70;3.35;;;8.00;99.90;;;;;;5062554;28;20043;-71
2022/04/15 01:49:36;;;;;;;10.30;3.20;;;8.00;99.90;;;;;;5087039;28;20070;-70
2022/04/15 01:52:03;;;;;;;6.35;3.67;;;8.10;99.90;;;;;;5084461;28;20046;-71
2022/04/15 01:54:29;;;;;;;9.10;3.45;;;8.10;99.90;;;;;;5056442;28;20123;-71
2022/04/15 01:56:55;;;;;;;8.33;3.57;;;8.10;99.90;;;;;;5080888;28;20123;-71
2022/04/15 01:59:21;;;;;;;10.18;3.65;;;8.10;99.90;;;;;;5076064;28;20040;-71
2022/04/15 02:01:46;;;;;;;5.68;3.22;;;8.10;99.90;;;;;;5076506;28;20036;-71
2022/04/15 02:04:12;;;;;;;6.70;2.93;;;8.20;99.90;;;;;;5083398;28;20090;-71
2022/04/15 02:06:37;;;;;;;7.90;3.93;;;8.20;99.90;;;;;;5077986;28;20115;-70
2022/04/15 02:09:03;;;;;;;8.37;3.60;;;8.20;99.90;;;;;;5085074;28;20485;-71
2022/04/15 02:11:29;;;;;;;7.75;3.70;;;8.30;99.90;;;;;;5059992;28;20127;-71
2022/04/15 02:13:55;;;;;;;8.77;3.83;;;8.20;99.90;;;;;;5050170;28;20036;-70
2022/04/15 02:16:20;;;;;;;9.97;4.23;;;8.30;99.90;;;;;;5059023;28;20497;-71
2022/04/15 02:18:46;;;;;;;11.47;3.80;;;8.30;99.90;;;;;;5061621;28;20061;-70
2022/04/15 02:21:11;;;;;;;7.53;4.00;;;8.30;99.90;;;;;;5077374;28;20127;-71
2022/04/15 02:23:37;;;;;;;12.40;4.07;;;8.30;99.90;;;;;;5078416;28;20029;-71
2022/04/15 02:26:03;;;;;;;6.67;3.73;;;8.30;99.90;;;;;;5078079;28;20044;-71
2022/04/15 02:28:31;;;;;;;8.83;3.23;;;8.40;99.90;;;;;;5078145;28;20324;-71
2022/04/15 02:30:56;;;;;;;11.25;3.92;;;8.40;99.90;;;;;;5060268;28;20052;-71
2022/04/15 02:33:22;;;;;;;16.33;3.70;;;8.40;99.90;;;;;;5061847;28;20032;-71
2022/04/15 02:35:48;;;;;;;6.50;2.63;;;8.50;99.90;;;;;;5041976;28;20109;-71
2022/04/15 02:38:13;;;;;;;6.67;3.13;;;8.50;99.90;;;;;;5067085;28;20442;-70
2022/04/15 02:40:39;;;;;;;13.23;3.30;;;8.60;99.90;;;;;;5065223;28;20660;-71
2022/04/15 02:43:06;;;;;;;7.57;3.40;;;8.60;99.90;;;;;;5062021;28;20488;-71
2022/04/15 02:45:32;;;;;;;7.95;3.63;;;8.60;99.90;;;;;;5078467;28;20043;-71
2022/04/15 02:47:58;;;;;;;10.18;3.55;;;8.60;99.90;;;;;;5068324;28;20496;-71
2022/04/15 02:50:24;;;;;;;5.95;3.13;;;8.60;99.90;;;;;;5081761;28;20040;-71
2022/04/15 02:52:50;;;;;;;8.38;2.88;;;8.70;99.90;;;;;;5058951;28;20120;-71
2022/04/15 02:55:16;;;;;;;7.97;3.00;;;8.70;99.90;;;;;;5077536;28;20119;-71
2022/04/15 02:57:41;;;;;;;15.25;2.78;;;8.70;99.90;;;;;;5081282;28;20063;-71
2022/04/15 03:00:08;;;;;;;8.17;2.90;;;8.70;99.90;;;;;;5059891;28;20473;-71
2022/04/15 03:02:34;;;;;;;9.18;3.25;;;8.80;99.90;;;;;;5079227;28;20032;-71
2022/04/15 03:05:00;;;;;;;7.25;2.70;;;8.70;99.90;;;;;;5060540;28;20043;-71
2022/04/15 03:07:26;;;;;;;6.93;2.83;;;8.70;99.90;;;;;;5076889;28;20294;-70
2022/04/15 03:09:54;;;;;;;6.55;2.70;;;8.70;99.90;;;;;;5083192;28;20374;-70
2022/04/15 03:12:19;;;;;;;7.77;3.60;;;8.80;99.90;;;;;;5059878;28;20132;-71
2022/04/15 03:14:45;;;;;;;7.37;2.60;;;8.70;99.90;;;;;;5053049;28;20091;-71
2022/04/15 03:17:12;;;;;;;4.80;2.80;;;8.80;99.90;;;;;;5062590;28;20075;-71
2022/04/15 03:19:37;;;;;;;;;;;8.80;99.90;;;;;;5066242;28;20045;-70
2022/04/15 03:22:04;;;;;;;7.32;3.22;;;8.80;99.90;;;;;;5067925;28;20006;-70
2022/04/15 03:24:33;;;;;;;7.28;3.28;;;8.80;99.90;;;;;;5087313;28;20047;-70
2022/04/15 03:26:59;;;;;;;8.60;3.63;;;8.80;99.90;;;;;;5065746;28;20139;-71
2022/04/15 03:29:24;;;;;;;11.03;3.57;;;8.90;99.90;;;;;;5081082;28;20131;-71
2022/04/15 03:31:50;;;;;;;5.33;2.93;;;8.90;99.90;;;;;;5065599;28;20036;-71
2022/04/15 03:34:15;;;;;;;12.53;3.50;;;8.80;99.90;;;;;;5083881;28;20400;-70
2022/04/15 03:36:41;;;;;;;8.37;3.40;;;8.90;99.90;;;;;;5054995;28;20047;-71
2022/04/15 03:39:07;;;;;;;9.43;2.90;;;8.90;99.90;;;;;;5060496;28;20056;-71
2022/04/15 03:41:33;;;;;;;5.30;3.00;;;8.90;99.90;;;;;;5081621;28;20032;-71
2022/04/15 03:44:01;;;;;;;7.90;3.40;;;8.80;99.90;;;;;;5063905;28;20051;-71
2022/04/15 03:46:27;;;;;;;10.75;3.63;;;8.80;99.90;;;;;;5058915;28;20045;-71
2022/04/15 03:48:52;;;;;;;5.87;2.77;;;8.80;99.90;;;;;;5073349;28;20404;-71
2022/04/15 03:51:18;;;;;;;6.30;3.03;;;8.80;99.90;;;;;;5071164;28;20070;-70
2022/04/15 03:53:43;;;;;;;7.87;3.23;;;8.80;99.90;;;;;;5060205;28;20052;-70
2022/04/15 03:56:09;;;;;;;7.47;3.43;;;8.80;99.90;;;;;;5063627;28;20036;-71
2022/04/15 03:58:35;;;;;;;6.03;3.13;;;8.80;99.90;;;;;;5086379;28;20029;-71
2022/04/15 04:01:01;;;;;;;6.25;3.17;;;8.80;99.90;;;;;;5078829;28;20059;-71
2022/04/15 04:03:26;;;;;;;5.40;3.03;;;8.80;99.90;;;;;;5066626;28;20109;-71
2022/04/15 04:05:52;;;;;;;9.50;3.50;;;8.80;99.90;;;;;;5080493;28;20040;-71
2022/04/15 04:08:17;;;;;;;7.27;3.30;;;8.80;99.90;;;;;;5080835;28;20047;-70
2022/04/15 04:10:43;;;;;;;10.33;3.80;;;8.80;99.90;;;;;;5064123;28;20477;-71
2022/04/15 04:13:11;;;;;;;10.13;3.80;;;8.80;99.90;;;;;;5069907;28;20093;-72
2022/04/15 04:15:37;;;;;;;12.57;4.85;;;8.80;99.90;;;;;;5058408;28;20551;-70
2022/04/15 04:18:02;;;;;;;12.50;5.03;;;8.80;99.90;;;;;;5075590;28;20044;-71
2022/04/15 04:20:28;;;;;;;11.27;5.47;;;8.80;99.90;;;;;;5075683;28;20405;-71
2022/04/15 04:22:57;;;;;;;11.77;5.75;;;8.90;99.90;;;;;;5056376;28;20040;-71
2022/04/15 04:25:23;;;;;;;13.18;6.43;;;8.80;99.90;;;;;;5067382;28;20619;-71
2022/04/15 04:27:48;;;;;;;13.87;7.50;;;8.90;99.90;;;;;;5082021;28;20039;-71
2022/04/15 04:30:15;;;;;;;12.30;6.93;;;8.80;99.90;;;;;;5061263;28;20070;-71
2022/04/15 04:32:51;;;;;;;11.95;7.22;;;8.80;99.90;;;;;;5064684;28;20032;-71
2022/04/15 04:35:21;;;;;;;10.98;5.72;;;8.80;99.90;;;;;;5060900;28;20036;-71
2022/04/15 04:37:47;;;;;;;9.70;6.20;;;8.80;99.90;;;;;;5083038;28;20040;-71
2022/04/15 04:40:13;;;;;;;8.50;5.30;;;8.80;99.90;;;;;;5070304;28;20403;-70
2022/04/15 04:42:40;;;;;;;9.13;4.68;;;8.70;99.90;;;;;;5073133;28;20131;-71
2022/04/15 04:45:06;;;;;;;10.52;4.82;;;8.70;99.90;;;;;;5083409;28;20718;-72
2022/04/15 04:47:31;;;;;;;8.60;5.35;;;8.70;99.90;;;;;;5066189;28;20041;-71
2022/04/15 04:49:58;;;;;;;8.70;5.13;;;8.60;99.90;;;;;;5069043;28;20039;-71
2022/04/15 04:52:24;;;;;;;8.02;4.57;;;8.60;99.90;;;;;;5056982;28;20044;-70
2022/04/15 04:54:50;;;;;;;6.67;4.20;;;8.60;99.90;;;;;;5044376;28;20044;-71
2022/04/15 04:57:15;;;;;;;10.80;4.78;;;8.60;99.90;;;;;;5057596;28;21883;-70
2022/04/15 04:59:41;;;;;;;6.93;4.07;;;8.60;99.90;;;;;;5076243;28;20032;-71
2022/04/15 05:02:10;;;;;;;8.48;4.28;;;8.60;99.90;;;;;;5052040;28;20163;-70
2022/04/15 05:04:36;;;;;;;9.13;4.82;;;8.60;99.90;;;;;;5083309;28;20040;-71
2022/04/15 05:07:03;;;;;;;9.27;4.63;;;8.60;99.90;;;;;;5081353;28;20041;-71
2022/04/15 05:09:28;;;;;;;6.53;3.70;;;8.60;99.90;;;;;;5066633;28;20518;-71
2022/04/15 05:11:55;;;;;;;5.87;3.73;;;8.60;99.90;;;;;;5070724;28;20065;-71
2022/04/15 05:14:20;;;;;;;6.53;3.30;;;8.60;99.90;;;;;;5078210;28;20112;-71
2022/04/15 05:16:46;;;;;;;6.50;3.40;;;8.60;99.90;;;;;;5057516;28;20083;-71
2022/04/15 05:19:12;;;;;;;7.33;4.10;;;8.60;99.90;;;;;;5068231;28;20496;-70
2022/04/15 05:21:38;;;;;;;4.72;2.92;;;8.50;99.90;;;;;;5057243;28;20121;-71
2022/04/15 05:24:04;;;;;;;6.38;3.20;;;8.60;99.90;;;;;;5064425;28;20044;-71
2022/04/15 05:26:33;;;;;;;5.72;3.40;;;8.60;99.90;;;;;;5064438;28;20067;-71
2022/04/15 05:28:58;;;;;;;4.80;2.70;;;8.60;99.90;;;;;;5078794;28;20051;-70
2022/04/15 05:31:24;;;;;;;5.27;3.13;;;8.60;99.90;;;;;;5080085;28;20032;-71
2022/04/15 05:33:49;;;;;;;5.47;3.13;;;8.60;99.90;;;;;;5083427;28;20036;-70
2022/04/15 05:36:16;;;;;;;4.93;2.97;;;8.60;99.90;;;;;;5081079;28;20039;-71
2022/04/15 05:38:42;;;;;;;4.57;2.60;;;8.60;99.90;;;;;;5078393;28;20127;-71
2022/04/15 05:41:07;;;;;;;5.73;3.07;;;8.50;99.90;;;;;;5064402;28;20524;-71
2022/04/15 05:43:33;;;;;;;6.57;2.90;;;8.50;99.90;;;;;;5060464;28;20497;-70
2022/04/15 05:45:59;;;;;;;3.37;1.90;;;8.60;99.90;;;;;;5080052;28;20126;-75
2022/04/15 05:48:24;;;;;;;4.50;1.90;;;8.50;99.90;;;;;;5079100;28;20044;-69
2022/04/15 05:50:50;;;;;;;3.77;2.17;;;8.50;99.90;;;;;;5073993;28;20040;-70
2022/04/15 05:53:16;;;;;;;2.50;1.80;;;8.50;99.90;;;;;;5079478;28;20115;-69
2022/04/15 05:55:41;;;;;;;3.97;2.20;;;8.50;99.90;;;;;;5050289;28;20086;-73
2022/04/15 05:58:10;;;;;;;3.23;1.93;;;8.50;99.90;;;;;;5085283;28;20119;-72
2022/04/15 06:00:39;;;;;;;4.60;2.35;;;8.50;99.90;;;;;;5073407;28;20089;-72
2022/04/15 06:03:07;;;;;;;4.10;2.47;;;8.50;99.90;;;;;;5066628;28;20032;-76
2022/04/15 06:05:32;;;;;;;2.70;1.88;;;8.40;99.90;;;;;;5060968;28;20032;-71
2022/04/15 06:07:58;;;;;;;4.50;2.00;;;8.50;99.90;;;;;;5058214;28;20412;-75
2022/04/15 06:10:23;;;;;;;4.30;2.73;;;8.40;99.90;;;;;;5046068;28;20090;-70
2022/04/15 06:13:00;;;;;;;3.57;2.40;;;8.40;99.90;;;;;;5074050;28;20040;-72
2022/04/15 06:15:30;;;;;;;3.43;2.10;;;8.40;99.90;;;;;;5078096;28;20044;-71
2022/04/15 06:17:57;;;;;;;3.30;1.90;;;8.40;99.90;;;;;;5062816;28;20180;-71
2022/04/15 06:20:23;;;;;;;;;;;8.40;99.90;;;;;;5078446;28;20038;-71
2022/04/15 06:22:48;;;;;;;2.63;1.70;;;8.30;99.90;;;;;;5069137;28;19920;-71
2022/04/15 06:25:14;;;;;;;3.33;1.67;;;8.30;99.90;;;;;;5070655;28;20032;-71
2022/04/15 06:27:39;;;;;;;3.63;1.83;;;8.30;99.90;;;;;;5070137;28;20124;-72
2022/04/15 06:30:07;;;;;;;3.77;2.00;;;8.30;99.90;;;;;;5081494;28;20040;-72
2022/04/15 06:32:36;;;;;;;5.85;2.20;;;8.30;99.90;;;;;;5073279;28;20074;-72
2022/04/15 06:35:05;;;;;;;3.85;2.20;;;8.30;99.90;;;;;;5066234;28;20031;-71
2022/04/15 06:37:31;;;;;;;5.40;1.90;;;8.30;99.90;;;;;;5060775;28;20048;-71
2022/04/15 06:39:56;;;;;;;4.67;2.33;;;8.30;99.90;;;;;;5024139;28;20156;-73
2022/04/15 06:42:27;;;;;;;4.60;2.03;;;8.30;99.90;;;;;;5071544;28;20481;-72
2022/04/15 06:44:54;;;;;;;4.85;2.20;;;8.20;99.90;;;;;;5065074;28;20071;-72
2022/04/15 06:47:20;;;;;;;6.95;3.20;;;8.30;99.90;;;;;;5054859;28;20044;-71
2022/04/15 06:49:47;;;;;;;4.82;3.03;;;8.20;99.90;;;;;;5061366;28;20036;-71
2022/04/15 06:52:14;;;;;;;9.30;3.50;;;8.20;99.90;;;;;;5062566;28;20520;-71
2022/04/15 06:54:39;;;;;;;;;;;8.20;99.90;;;;;;5073580;28;20128;-71
2022/04/15 06:57:05;;;;;;;4.50;2.70;;;8.20;99.90;;;;;;5054959;28;20011;-71
2022/04/15 06:59:30;;;;;;;7.33;3.33;;;8.20;99.90;;;;;;5083394;28;20270;-71
2022/04/15 07:01:59;;;;;;;4.87;3.50;;;8.30;99.90;;;;;;5067293;28;20535;-72
2022/04/15 07:04:24;;;;;;;7.68;3.85;;;8.30;99.90;;;;;;5061879;28;20044;-71
2022/04/15 07:06:50;;;;;;;7.53;4.63;;;8.30;99.90;;;;;;5064390;28;20427;-71
2022/04/15 07:09:16;;;;;;;5.93;4.33;;;8.40;99.90;;;;;;5078068;28;20591;-71
2022/04/15 07:11:41;;;;;;;7.23;4.67;;;8.40;99.90;;;;;;5078662;28;20378;-72
2022/04/15 07:14:07;;;;;;;8.53;4.23;;;8.40;99.90;;;;;;5075438;28;20032;-72
2022/04/15 07:16:34;;;;;;;8.47;5.03;;;8.40;99.90;;;;;;5055569;28;20517;-72
2022/04/15 07:19:04;;;;;;;11.38;5.18;;;8.50;99.90;;;;;;5076560;28;20544;-71
2022/04/15 07:21:38;;;;;;;7.45;4.75;;;8.50;99.90;;;;;;5059549;28;20032;-71
2022/04/15 07:24:04;;;;;;;13.88;5.78;;;8.60;99.90;;;;;;5049888;28;20044;-71
2022/04/15 07:26:30;;;;;;;7.75;5.53;;;8.60;99.90;;;;;;5061258;28;20044;-71
2022/04/15 07:28:55;;;;;;;9.67;5.20;;;8.60;99.90;;;;;;5074403;28;20051;-71
2022/04/15 07:31:21;;;;;;;13.77;5.77;;;8.60;99.90;;;;;;5079968;28;20035;-71
2022/04/15 07:33:47;;;;;;;15.98;6.47;;;8.60;99.90;;;;;;5079972;28;20070;-71
2022/04/15 07:36:31;;;;;;;13.47;5.63;;;8.70;99.90;;;;;;5071713;28;20040;-71
2022/04/15 07:38:57;;;;;;;12.00;6.35;;;8.70;99.90;;;;;;5067678;28;20093;-72
2022/04/15 07:41:23;;;;;;;13.48;6.15;;;8.70;99.90;;;;;;5075983;28;20556;-72
2022/04/15 07:43:49;;;;;;;11.20;5.73;;;8.80;99.90;;;;;;5072735;28;20098;-72
2022/04/15 07:46:15;;;;;;;16.13;8.13;;;8.80;99.90;;;;;;5080080;28;20038;-72
2022/04/15 07:48:41;;;;;;;17.77;7.22;;;8.90;99.90;;;;;;5080606;28;20336;-71
2022/04/15 07:51:07;;;;;;;12.52;6.97;;;8.90;99.90;;;;;;5076078;28;20060;-71
2022/04/15 07:53:32;;;;;;;17.27;7.37;;;9.10;99.90;;;;;;5053242;28;20055;-72
2022/04/15 07:55:58;;;;;;;11.50;6.67;;;9.20;99.90;;;;;;5079083;28;20086;-72
2022/04/15 07:58:23;;;;;;;14.30;6.60;;;9.30;99.90;;;;;;5084826;28;20035;-72
2022/04/15 08:00:49;;;;;;;13.23;7.13;;;9.40;99.90;;;;;;5074498;28;20542;-71
2022/04/15 08:03:17;;;;;;;12.52;7.05;;;9.40;99.90;;;;;;5056370;28;20047;-71
2022/04/15 08:05:43;;;;;;;11.80;6.53;;;9.60;99.90;;;;;;5075197;28;20040;-71
2022/04/15 08:08:09;;;;;;;14.63;6.22;;;9.70;99.90;;;;;;5080362;28;20047;-72
2022/04/15 08:10:34;;;;;;;15.93;6.67;;;9.80;99.90;;;;;;5076518;28;20408;-75
2022/04/15 08:13:02;;;;;;;14.10;7.03;;;9.80;99.90;;;;;;5067859;28;20031;-71
2022/04/15 08:15:28;;;;;;;11.07;6.20;;;9.90;99.90;;;;;;5085993;28;20047;-71
2022/04/15 08:17:53;;;;;;;15.30;6.53;;;9.90;99.90;;;;;;5081312;28;20032;-71
2022/04/15 08:20:19;;;;;;;12.97;6.60;;;9.90;99.90;;;;;;5085703;28;20060;-71
2022/04/15 08:22:44;;;;;;;16.70;7.53;;;9.90;99.90;;;;;;5087413;28;20055;-72
2022/04/15 08:25:10;;;;;;;9.57;5.23;;;10.00;99.90;;;;;;5075775;28;20032;-71
2022/04/15 08:27:36;;;;;;;8.60;5.10;;;10.10;99.90;;;;;;5080405;28;20587;-71
2022/04/15 08:30:01;;;;;;;15.27;6.50;;;10.10;99.90;;;;;;5058650;28;20409;-72
2022/04/15 08:32:33;;;;;;;16.52;5.88;;;10.10;99.90;;;;;;5084460;28;20032;-73
2022/04/15 08:35:02;;;;;;;12.40;5.75;;;10.10;99.90;;;;;;5055113;28;20052;-71
2022/04/15 08:37:28;;;;;;;13.10;6.30;;;10.00;99.90;;;;;;5080578;28;20081;-72
2022/04/15 08:39:54;;;;;;;13.20;5.20;;;10.00;99.90;;;;;;5080681;28;20036;-71
2022/04/15 08:42:23;;;;;;;9.73;4.82;;;10.00;99.90;;;;;;5064118;28;20047;-72
2022/04/15 08:44:52;;;;;;;15.23;5.10;;;10.10;99.90;;;;;;5061101;28;20090;-72
2022/04/15 08:47:19;;;;;;;13.88;5.82;;;10.10;99.90;;;;;;5081313;28;20036;-71
2022/04/15 08:49:46;;;;;;;7.10;4.38;;;10.10;99.90;;;;;;5066147;28;20040;-71
2022/04/15 08:52:15;;;;;;;10.05;4.50;;;10.20;99.90;;;;;;5073705;28;20598;-71
2022/04/15 08:54:41;;;;;;;7.55;3.95;;;10.30;99.90;;;;;;5072465;28;20085;-71
2022/04/15 08:57:07;;;;;;;10.00;5.63;;;10.40;99.90;;;;;;5057488;28;20031;-72
2022/04/15 08:59:33;;;;;;;9.73;4.45;;;10.40;99.90;;;;;;5089892;28;20032;-73
2022/04/15 09:01:58;;;;;;;9.27;4.50;;;10.40;99.90;;;;;;5061949;28;20071;-72
2022/04/15 09:04:25;;;;;;;8.30;3.73;;;10.40;99.90;;;;;;5068453;28;20408;-72
2022/04/15 09:06:59;;;;;;;8.05;3.83;;;10.50;99.90;;;;;;5081464;28;20058;-72
2022/04/15 09:09:33;;;;;;;7.15;3.65;;;10.50;99.90;;;;;;5053879;28;20056;-72
2022/04/15 09:12:05;;;;;;;11.13;4.25;;;10.60;99.90;;;;;;5076091;28;20052;-72
2022/04/15 09:14:30;;;;;;;8.57;4.50;;;10.80;99.90;;;;;;5063157;28;20056;-71
2022/04/15 09:16:56;;;;;;;5.53;3.30;;;11.00;99.90;;;;;;5071719;28;20036;-72
2022/04/15 09:19:22;;;;;;;5.78;3.10;;;11.10;99.90;;;;;;5081539;28;20086;-71
2022/04/15 09:21:55;;;;;;;7.93;4.00;;;11.30;99.90;;;;;;5082754;28;20283;-71
2022/04/15 09:24:31;;;;;;;6.70;3.80;;;11.40;99.90;;;;;;5069240;28;20046;-71
2022/04/15 09:26:56;;;;;;;9.05;3.70;;;11.50;99.90;;;;;;5075290;28;20127;-71
2022/04/15 09:29:25;;;;;;;7.87;3.80;;;11.70;99.90;;;;;;5079274;28;20124;-72
2022/04/15 09:31:55;;;;;;;8.27;3.47;;;11.90;99.90;;;;;;5080959;28;20039;-72
2022/04/15 09:34:21;;;;;;;7.05;3.45;;;12.10;99.90;;;;;;5072680;28;20044;-72
2022/04/15 09:36:47;;;;;;;4.85;2.95;;;12.30;99.90;;;;;;5079585;28;20105;-71
2022/04/15 09:39:16;;;;;;;5.43;3.17;;;12.50;99.90;;;;;;5078193;28;20519;-72
2022/04/15 09:41:50;;;;;;;8.07;3.35;;;12.70;99.90;;;;;;5056878;28;20040;-72
2022/04/15 09:44:15;;;;;;;7.35;3.63;;;12.70;99.90;;;;;;5055623;28;20127;-71
2022/04/15 09:46:42;;;;;;;7.47;3.30;;;12.80;99.90;;;;;;5078387;28;20119;-71
2022/04/15 09:49:09;;;;;;;10.25;3.40;;;12.80;99.90;;;;;;5078082;28;20036;-71
2022/04/15 09:51:44;;;;;;;5.45;2.90;;;12.90;99.90;;;;;;5056236;28;20136;-72
2022/04/15 09:54:24;;;;;;;7.20;2.80;;;13.00;99.90;;;;;;5053815;28;20040;-72
2022/04/15 09:56:51;;;;;;;6.20;3.15;;;13.10;99.90;;;;;;5058056;28;20036;-71
2022/04/15 09:59:20;;;;;;;5.47;3.20;;;13.30;99.90;;;;;;5081305;28;20527;-72
2022/04/15 10:01:49;;;;;;;4.88;3.00;;;13.50;99.90;;;;;;5080247;28;20428;-71
2022/04/15 10:04:14;;;;;;;5.93;2.85;;;13.60;99.90;;;;;;5077610;28;20389;-72
2022/04/15 10:06:42;;;;;;;3.85;2.38;;;13.70;99.90;;;;;;5077169;28;20115;-71
2022/04/15 10:09:12;;;;;;;5.20;2.92;;;13.80;98.40;;;;;;5077259;28;20047;-72
2022/04/15 10:11:42;;;;;;;5.63;3.10;;;13.90;95.50;;;;;;5084075;28;20036;-72
2022/04/15 10:14:09;;;;;;;7.28;3.13;;;13.80;96.00;;;;;;5060060;28;20078;-71
2022/04/15 10:16:38;;;;;;;5.40;3.10;;;13.80;96.90;;;;;;5083030;28;20110;-72
2022/04/15 10:19:04;;;;;;;6.55;3.05;;;13.80;95.60;;;;;;5083718;28;20039;-73
2022/04/15 10:21:37;;;;;;;6.63;3.40;;;13.70;95.80;;;;;;5084722;28;20036;-72
2022/04/15 10:24:04;;;;;;;6.90;3.70;;;13.60;95.40;;;;;;5084892;28;20044;-71
2022/04/15 10:26:43;;;;;;;;;;;13.50;95.90;;;;;;5072811;28;20068;-72
2022/04/15 10:29:10;;;;;;;5.47;3.08;;;13.30;92.10;;;;;;5080809;28;19924;-72
2022/04/15 10:31:40;;;;;;;6.28;3.08;;;13.40;97.90;;;;;;5061578;28;20103;-73
2022/04/15 10:34:16;;;;;;;7.43;3.90;;;13.50;98.20;;;;;;5079658;28;20040;-72
2022/04/15 10:36:46;;;;;;;10.25;4.00;;;13.80;93.40;;;;;;5080187;28;20032;-72
2022/04/15 10:39:14;;;;;;;6.35;4.03;;;13.80;93.00;;;;;;5061565;28;20039;-72
2022/04/15 10:41:43;;;;;;;5.95;3.85;;;13.90;95.60;;;;;;5045916;28;20043;-71
2022/04/15 10:44:13;;;;;;;6.97;3.90;;;13.90;93.50;;;;;;5081228;28;20087;-72
2022/04/15 10:46:39;;;;;;;5.68;3.85;;;14.00;93.30;;;;;;5081649;28;20035;-72
2022/04/15 10:49:26;;;;;;;7.15;4.20;;;14.00;93.60;;;;;;5075739;28;20477;-72
2022/04/15 10:52:02;;;;;;;;;;;14.00;92.00;;;;;;5074456;28;20133;-72
2022/04/15 10:54:38;;;;;;;7.50;4.35;;;13.90;90.70;;;;;;5069190;28;19927;-72
2022/04/15 10:57:04;;;;;;;8.95;4.05;;;13.90;95.00;;;;;;5065163;28;20078;-72
2022/04/15 11:02:37;;;;;;;7.35;3.88;;;14.10;93.20;;;;;;5064226;28;20287;-72
2022/04/15 11:05:05;;;;;;;8.77;4.03;;;14.10;90.00;;;;;;5064665;28;20126;-72
2022/04/15 11:07:47;;;;;;;7.22;4.15;;;14.30;93.40;;;;;;5065010;28;20052;-72
2022/04/15 11:11:03;;;;;;;5.82;3.35;;;14.50;90.00;;;;;;5075106;28;20515;-72
2022/04/15 11:13:39;;;;;;;9.98;3.63;;;14.60;82.10;;;;;;5076303;28;20138;-72
2022/04/15 11:16:10;;;;;;;6.40;3.53;;;14.50;87.50;;;;;;5066940;28;20040;-72
2022/04/15 11:18:54;;;;;;;6.97;3.97;;;14.50;90.50;;;;;;5063589;28;20036;-72
2022/04/15 11:21:24;;;;;;;9.48;4.45;;;14.30;89.30;;;;;;5077014;28;20043;-72
2022/04/15 11:23:56;;;;;;;7.35;4.47;;;14.20;91.10;;;;;;5084607;28;20127;-71
2022/04/15 11:26:23;;;;;;;7.38;3.75;;;14.00;91.60;;;;;;5074504;28;20036;-72
2022/04/15 11:28:50;;;;;;;9.50;4.55;;;13.80;92.10;;;;;;5061212;28;20109;-71
2022/04/15 11:31:26;;;;;;;7.88;4.30;;;13.60;92.20;;;;;;5076136;28;20040;-72
2022/04/15 11:33:53;;;;;;;10.07;4.32;;;13.60;92.10;;;;;;5078884;28;20046;-72
2022/04/15 11:36:20;;;;;;;6.35;4.05;;;13.70;94.30;;;;;;5080534;28;20455;-72
2022/04/15 11:38:49;;;;;;;8.40;4.18;;;13.90;93.10;;;;;;5062284;28;20389;-72
2022/04/15 11:41:22;;;;;;;9.23;4.38;;;13.90;90.90;;;;;;5080185;28;20298;-73
2022/04/15 11:43:59;;;;;;;5.53;3.55;;;13.90;88.30;;;;;;5059658;28;20039;-72
2022/04/15 11:46:27;;;;;;;8.35;4.40;;;13.80;90.60;;;;;;5060787;28;20043;-71
2022/04/15 11:48:55;;;;;;;9.07;4.82;;;13.60;91.40;;;;;;5061498;28;20135;-72
2022/04/15 11:51:23;;;;;;;8.82;4.60;;;13.60;92.40;;;;;;5074614;28;20505;-71
2022/04/15 11:53:49;;;;;;;7.10;4.18;;;13.50;93.00;;;;;;5076457;28;20055;-71
2022/04/15 11:56:20;;;;;;;8.73;3.92;;;13.40;93.00;;;;;;5080116;28;20032;-72
2022/04/15 11:58:46;;;;;;;8.02;3.90;;;13.40;93.30;;;;;;5076993;28;20052;-73
2022/04/15 12:01:24;;;;;;;6.05;4.18;;;13.30;93.60;;;;;;5061138;28;20483;-71
2022/04/15 12:03:51;;;;;;;10.00;4.75;;;13.30;94.40;;;;;;5058085;28;20086;-72
2022/04/15 12:06:16;;;;;;;12.90;5.38;;;13.30;95.20;;;;;;5084605;28;20044;-72
2022/04/15 12:08:42;;;;;;;22.90;10.93;;;13.20;95.40;;;;;;5054437;28;20367;-72
2022/04/15 12:11:09;;;;;;;14.27;5.80;;;13.10;96.10;;;;;;5078543;28;20036;-72
2022/04/15 12:13:34;;;;;;;10.00;5.47;;;13.00;96.70;;;;;;5079759;28;20051;-72
2022/04/15 12:16:01;;;;;;;9.60;5.05;;;12.90;97.20;;;;;;5076053;28;20040;-71
2022/04/15 12:18:26;;;;;;;12.35;4.47;;;12.90;97.60;;;;;;5072448;28;20097;-71
2022/04/15 12:20:52;;;;;;;7.20;4.05;;;12.80;98.00;;;;;;5065844;28;20430;-72
2022/04/15 12:23:18;;;;;;;10.32;4.47;;;12.80;97.70;;;;;;5063890;28;20085;-72
2022/04/15 12:26:08;;;;;;;8.82;4.45;;;12.70;97.70;;;;;;5065602;28;20028;-72
2022/04/15 12:31:27;;;;;;;6.93;4.03;;;12.60;98.70;;;;;;5076100;28;20416;-72
2022/04/15 12:33:53;;;;;;;8.45;4.55;;;12.60;98.60;;;;;;5085974;28;20115;-71
2022/04/15 12:36:19;;;;;;;8.45;4.45;;;12.50;98.40;;;;;;5055441;28;20134;-72
2022/04/15 12:39:02;;;;;;;7.93;4.47;;;12.50;98.80;;;;;;5077923;28;20052;-72
2022/04/15 12:41:48;;;;;;;10.02;4.78;;;12.40;98.30;;;;;;5061535;28;20069;-71
2022/04/15 12:44:19;;;;;;;8.77;4.40;;;12.40;99.90;;;;;;5067218;28;20070;-71
2022/04/15 12:46:47;;;;;;;9.55;4.82;;;12.40;99.60;;;;;;5064597;28;20036;-71
2022/04/15 12:49:23;;;;;;;11.07;4.60;;;12.40;99.90;;;;;;5063483;28;20051;-72
2022/04/15 12:51:49;;;;;;;22.48;8.75;;;12.40;99.50;;;;;;5081995;28;20051;-72
2022/04/15 12:54:14;;;;;;;9.73;6.03;;;12.50;99.90;;;;;;5084927;28;20413;-71
2022/04/15 12:56:56;;;;;;;9.27;5.47;;;12.50;99.90;;;;;;5074633;28;20071;-71
2022/04/15 12:59:23;;;;;;;13.82;7.95;;;12.50;99.90;;;;;;5083105;28;20036;-72
2022/04/15 13:01:49;;;;;;;12.68;7.03;;;12.60;99.90;;;;;;5065599;28;20175;-72